KLM769 TNCB-EHAM
Flight info
| Callsign | KLM769 |
|---|---|
| Flight time | N/A |
| Altitude | 33000 |
| Route | SCAPA1R SCAPA DCT DAWIN/M084F350 DCT KAVAX DCT 33N050W 40N040W/M084F370 46N030W 50N020W DCT ADARA/N0481F370 DCT LEKVA/N0486F390 DCT BAL DCT LIFFY UL975 WAL M16 DOLAS L603 LAMSO |
| Aircraft | MD11/H-SDE1E2E3FGHIJ2J3J4J5M1RWXY/LB1D1 |
Departure
| Time | 2026-04-13 16:11 |
|---|---|
| Airport | Flamingo International Airport (TNCB) |
Arrival
| Time | N/A |
|---|---|
| Airport | Amsterdam Airport Schiphol (EHAM) |
| Time | Latitude | Longitude | Altitude | Speed | Heading |
|---|---|---|---|---|---|
| 2026-04-13 15:23 | 12.13317 | -68.27495 | 24 ft | 0 kts | 2° |
| 2026-04-13 16:00 | 12.13315 | -68.27495 | 24 ft | 0 kts | 2° |
| 2026-04-13 16:00 | 12.13301 | -68.27494 | 24 ft | 2 kts | 346° |
| 2026-04-13 16:00 | 12.13287 | -68.27488 | 24 ft | 2 kts | 326° |
| 2026-04-13 16:01 | 12.13276 | -68.27478 | 24 ft | 2 kts | 308° |
| 2026-04-13 16:01 | 12.13269 | -68.27465 | 24 ft | 2 kts | 289° |
| 2026-04-13 16:01 | 12.13265 | -68.27452 | 24 ft | 1 kts | 273° |
| 2026-04-13 16:02 | 12.13265 | -68.27448 | 24 ft | 1 kts | 270° |
| 2026-04-13 16:02 | 12.13265 | -68.27446 | 24 ft | 0 kts | 270° |
| 2026-04-13 16:06 | 12.13256 | -68.27470 | 24 ft | 8 kts | 231° |
| 2026-04-13 16:06 | 12.13208 | -68.27499 | 24 ft | 5 kts | 183° |
| 2026-04-13 16:06 | 12.13202 | -68.27499 | 24 ft | 0 kts | 183° |
| 2026-04-13 16:06 | 12.13175 | -68.27500 | 24 ft | 8 kts | 182° |
| 2026-04-13 16:07 | 12.13118 | -68.27530 | 24 ft | 10 kts | 247° |
| 2026-04-13 16:07 | 12.13110 | -68.27631 | 24 ft | 17 kts | 271° |
| 2026-04-13 16:07 | 12.13113 | -68.27755 | 23 ft | 17 kts | 272° |
| 2026-04-13 16:07 | 12.13117 | -68.27885 | 23 ft | 18 kts | 272° |
| 2026-04-13 16:08 | 12.13113 | -68.27986 | 23 ft | 10 kts | 246° |
| 2026-04-13 16:08 | 12.13076 | -68.28052 | 24 ft | 9 kts | 238° |
| 2026-04-13 16:08 | 12.13057 | -68.28109 | 24 ft | 7 kts | 290° |
| 2026-04-13 16:08 | 12.13104 | -68.28126 | 24 ft | 7 kts | 25° |
| 2026-04-13 16:09 | 12.13117 | -68.28083 | 24 ft | 6 kts | 83° |
| 2026-04-13 16:09 | 12.13120 | -68.28044 | 23 ft | 0 kts | 89° |
| 2026-04-13 16:09 | 12.13120 | -68.28043 | 23 ft | 0 kts | 89° |
| 2026-04-13 16:10 | 12.13117 | -68.27853 | 23 ft | 60 kts | 93° |
| 2026-04-13 16:10 | 12.13092 | -68.27186 | 26 ft | 124 kts | 93° |
| 2026-04-13 16:10 | 12.13065 | -68.26114 | 39 ft | 173 kts | 93° |
| 2026-04-13 16:10 | 12.12995 | -68.24904 | 455 ft | 173 kts | 91° |
| 2026-04-13 16:11 | 12.12936 | -68.23647 | 838 ft | 178 kts | 94° |
| 2026-04-13 16:11 | 12.12905 | -68.22375 | 1374 ft | 181 kts | 91° |
| 2026-04-13 16:11 | 12.12886 | -68.21108 | 1950 ft | 178 kts | 92° |
| 2026-04-13 16:11 | 12.12862 | -68.19838 | 2415 ft | 179 kts | 92° |
| 2026-04-13 16:12 | 12.12829 | -68.18572 | 2882 ft | 181 kts | 92° |
| 2026-04-13 16:12 | 12.12811 | -68.17267 | 3264 ft | 189 kts | 85° |
| 2026-04-13 16:12 | 12.12992 | -68.16492 | 3343 ft | 203 kts | 66° |
| 2026-04-13 16:12 | 12.13838 | -68.15275 | 3551 ft | 226 kts | 45° |
| 2026-04-13 16:13 | 12.15273 | -68.14378 | 3735 ft | 257 kts | 20° |
| 2026-04-13 16:13 | 12.17126 | -68.14043 | 4198 ft | 277 kts | 10° |
| 2026-04-13 16:13 | 12.19065 | -68.13825 | 4866 ft | 286 kts | 11° |
| 2026-04-13 16:13 | 12.21079 | -68.13545 | 5585 ft | 293 kts | 12° |
| 2026-04-13 16:14 | 12.23096 | -68.13225 | 6322 ft | 297 kts | 12° |
| 2026-04-13 16:14 | 12.25146 | -68.12883 | 7046 ft | 301 kts | 12° |
| 2026-04-13 16:14 | 12.27186 | -68.12535 | 7764 ft | 304 kts | 12° |
| 2026-04-13 16:15 | 12.27261 | -68.12522 | 7790 ft | 304 kts | 12° |
| 2026-04-13 16:15 | 12.29352 | -68.12161 | 8509 ft | 308 kts | 12° |
| 2026-04-13 16:15 | 12.31497 | -68.11790 | 9212 ft | 312 kts | 11° |
| 2026-04-13 16:16 | 12.33627 | -68.11422 | 9879 ft | 316 kts | 11° |
| 2026-04-13 16:16 | 12.35834 | -68.11041 | 10370 ft | 328 kts | 10° |
| 2026-04-13 16:16 | 12.38200 | -68.10635 | 10485 ft | 353 kts | 10° |
| 2026-04-13 16:16 | 12.40710 | -68.10204 | 10577 ft | 379 kts | 10° |
| 2026-04-13 16:17 | 12.43413 | -68.09738 | 10695 ft | 402 kts | 9° |
| 2026-04-13 16:17 | 12.46254 | -68.09248 | 11087 ft | 416 kts | 9° |
| 2026-04-13 16:17 | 12.49139 | -68.08750 | 11681 ft | 423 kts | 9° |
| 2026-04-13 16:17 | 12.52065 | -68.08246 | 12332 ft | 428 kts | 9° |
| 2026-04-13 16:18 | 12.55025 | -68.07735 | 12963 ft | 433 kts | 9° |
| 2026-04-13 16:18 | 12.58019 | -68.07217 | 13588 ft | 437 kts | 9° |
| 2026-04-13 16:18 | 12.61025 | -68.06696 | 14206 ft | 441 kts | 9° |
| 2026-04-13 16:18 | 12.64087 | -68.06160 | 14818 ft | 446 kts | 9° |
| 2026-04-13 16:19 | 12.67127 | -68.05630 | 15407 ft | 450 kts | 9° |
| 2026-04-13 16:19 | 12.70245 | -68.05086 | 15986 ft | 454 kts | 9° |
| 2026-04-13 16:19 | 12.73408 | -68.04537 | 16547 ft | 458 kts | 8° |
| 2026-04-13 16:19 | 12.76548 | -68.03990 | 17085 ft | 462 kts | 8° |
| 2026-04-13 16:20 | 12.79746 | -68.03434 | 17618 ft | 467 kts | 8° |
| 2026-04-13 16:20 | 12.82980 | -68.02869 | 18137 ft | 471 kts | 8° |
| 2026-04-13 16:20 | 12.86272 | -68.02294 | 18642 ft | 475 kts | 8° |
| 2026-04-13 16:20 | 12.89528 | -68.01727 | 19126 ft | 479 kts | 8° |
| 2026-04-13 16:21 | 12.92851 | -68.01149 | 19607 ft | 483 kts | 8° |
| 2026-04-13 16:21 | 12.96226 | -68.00562 | 20081 ft | 486 kts | 7° |
| 2026-04-13 16:21 | 12.99558 | -67.99982 | 20534 ft | 490 kts | 7° |
| 2026-04-13 16:21 | 13.02952 | -67.99390 | 20979 ft | 494 kts | 7° |
| 2026-04-13 16:22 | 13.06361 | -67.98797 | 21415 ft | 498 kts | 7° |
| 2026-04-13 16:22 | 13.09816 | -67.98195 | 21839 ft | 501 kts | 7° |
| 2026-04-13 16:22 | 13.16747 | -67.96986 | 22636 ft | 508 kts | 6° |
| 2026-04-13 16:23 | 13.20255 | -67.96376 | 23024 ft | 512 kts | 6° |
| 2026-04-13 16:23 | 13.23787 | -67.95761 | 23414 ft | 515 kts | 6° |
| 2026-04-13 16:23 | 13.27331 | -67.95145 | 23813 ft | 518 kts | 6° |
| 2026-04-13 16:23 | 13.30927 | -67.94518 | 24205 ft | 521 kts | 6° |
| 2026-04-13 16:24 | 13.34522 | -67.93892 | 24586 ft | 524 kts | 6° |
| 2026-04-13 16:24 | 13.38130 | -67.93263 | 24962 ft | 527 kts | 6° |
| 2026-04-13 16:24 | 13.41767 | -67.92630 | 25335 ft | 530 kts | 5° |
| 2026-04-13 16:24 | 13.45400 | -67.91994 | 25702 ft | 533 kts | 5° |
| 2026-04-13 16:25 | 13.49072 | -67.91349 | 26070 ft | 536 kts | 5° |
| 2026-04-13 16:25 | 13.52763 | -67.90700 | 26475 ft | 537 kts | 5° |
| 2026-04-13 16:25 | 13.56485 | -67.90046 | 26820 ft | 540 kts | 5° |
| 2026-04-13 16:25 | 13.60167 | -67.89400 | 27259 ft | 539 kts | 5° |
| 2026-04-13 16:26 | 13.63891 | -67.88746 | 27739 ft | 538 kts | 5° |
| 2026-04-13 16:26 | 13.67565 | -67.88102 | 28199 ft | 538 kts | 5° |
| 2026-04-13 16:26 | 13.71242 | -67.87457 | 28689 ft | 537 kts | 5° |
| 2026-04-13 16:26 | 13.74936 | -67.86810 | 29188 ft | 536 kts | 5° |
| 2026-04-13 16:27 | 13.78635 | -67.86162 | 29678 ft | 535 kts | 4° |
| 2026-04-13 16:27 | 13.82296 | -67.85520 | 30168 ft | 534 kts | 4° |
| 2026-04-13 16:27 | 13.85946 | -67.84881 | 30672 ft | 533 kts | 4° |
| 2026-04-13 16:27 | 13.89640 | -67.84234 | 31177 ft | 532 kts | 4° |
| 2026-04-13 16:28 | 13.93252 | -67.83600 | 31663 ft | 531 kts | 4° |
| 2026-04-13 16:28 | 13.96924 | -67.82955 | 32148 ft | 529 kts | 4° |
| 2026-04-13 16:28 | 14.00553 | -67.82318 | 32615 ft | 528 kts | 4° |
| 2026-04-13 16:28 | 14.04211 | -67.81677 | 33024 ft | 529 kts | 4° |
| 2026-04-13 16:29 | 14.07915 | -67.81028 | 33118 ft | 531 kts | 4° |
| 2026-04-13 16:29 | 14.15205 | -67.79747 | 33081 ft | 526 kts | 4° |
| 2026-04-13 16:30 | 14.22461 | -67.78474 | 33071 ft | 524 kts | 4° |
| 2026-04-13 16:30 | 14.29655 | -67.77206 | 33001 ft | 524 kts | 4° |
| 2026-04-13 16:31 | 14.36862 | -67.75932 | 32984 ft | 525 kts | 4° |
| 2026-04-13 16:31 | 14.44103 | -67.74652 | 33001 ft | 526 kts | 4° |
| 2026-04-13 16:32 | 14.51314 | -67.73377 | 33011 ft | 525 kts | 4° |
| 2026-04-13 16:32 | 14.58539 | -67.72100 | 33013 ft | 525 kts | 4° |
| 2026-04-13 16:33 | 14.65763 | -67.70824 | 33014 ft | 525 kts | 4° |
| 2026-04-13 16:33 | 14.72951 | -67.69554 | 33013 ft | 525 kts | 4° |
| 2026-04-13 16:34 | 14.80201 | -67.68274 | 33013 ft | 525 kts | 4° |
| 2026-04-13 16:34 | 14.87443 | -67.66994 | 33015 ft | 525 kts | 4° |
| 2026-04-13 16:35 | 14.94661 | -67.65718 | 33017 ft | 525 kts | 4° |
| 2026-04-13 16:35 | 15.01898 | -67.64439 | 33018 ft | 526 kts | 4° |
| 2026-04-13 16:36 | 15.09115 | -67.63161 | 33019 ft | 526 kts | 4° |
| 2026-04-13 16:36 | 15.16335 | -67.61874 | 33020 ft | 525 kts | 4° |
| 2026-04-13 16:37 | 15.23570 | -67.60586 | 33021 ft | 526 kts | 4° |
| 2026-04-13 16:37 | 15.30794 | -67.59301 | 33023 ft | 526 kts | 3° |
| 2026-04-13 16:38 | 15.38042 | -67.58011 | 33024 ft | 526 kts | 3° |
| 2026-04-13 16:38 | 15.45233 | -67.56731 | 33026 ft | 526 kts | 3° |
| 2026-04-13 16:39 | 15.52476 | -67.55442 | 33026 ft | 526 kts | 3° |
| 2026-04-13 16:39 | 15.59734 | -67.54150 | 33027 ft | 525 kts | 3° |
| 2026-04-13 16:40 | 15.66929 | -67.52870 | 33028 ft | 525 kts | 3° |
| 2026-04-13 16:40 | 15.74193 | -67.51578 | 33030 ft | 526 kts | 3° |
| 2026-04-13 16:41 | 15.81333 | -67.49769 | 33040 ft | 536 kts | 14° |
| 2026-04-13 16:41 | 15.88077 | -67.46277 | 33034 ft | 549 kts | 28° |
| 2026-04-13 16:42 | 15.94046 | -67.41209 | 33034 ft | 558 kts | 42° |
| 2026-04-13 16:42 | 15.98970 | -67.34939 | 33038 ft | 561 kts | 49° |
| 2026-04-13 16:43 | 16.04057 | -67.28793 | 33035 ft | 558 kts | 43° |
| 2026-04-13 16:43 | 16.09465 | -67.23006 | 33034 ft | 557 kts | 41° |
| 2026-04-13 16:44 | 16.14924 | -67.17326 | 33036 ft | 557 kts | 41° |
| 2026-04-13 16:44 | 16.20418 | -67.11634 | 33038 ft | 558 kts | 41° |
| 2026-04-13 16:45 | 16.25988 | -67.05868 | 33039 ft | 559 kts | 41° |
| 2026-04-13 16:45 | 16.31498 | -67.00161 | 33039 ft | 560 kts | 41° |
| 2026-04-13 16:46 | 16.37019 | -66.94445 | 33040 ft | 560 kts | 41° |
| 2026-04-13 16:46 | 16.42561 | -66.88710 | 33042 ft | 560 kts | 41° |
| 2026-04-13 16:47 | 16.48104 | -66.82975 | 33044 ft | 561 kts | 41° |
| 2026-04-13 16:47 | 16.53618 | -66.77219 | 33045 ft | 562 kts | 41° |
| 2026-04-13 16:48 | 16.59136 | -66.71431 | 33044 ft | 563 kts | 41° |
| 2026-04-13 16:48 | 16.64679 | -66.65629 | 33043 ft | 563 kts | 41° |
| 2026-04-13 16:49 | 16.70209 | -66.59843 | 33044 ft | 563 kts | 41° |
| 2026-04-13 16:49 | 16.75732 | -66.54067 | 33045 ft | 563 kts | 41° |
| 2026-04-13 16:50 | 16.81272 | -66.48275 | 33045 ft | 563 kts | 41° |
| 2026-04-13 16:50 | 16.86829 | -66.42467 | 33050 ft | 563 kts | 41° |
| 2026-04-13 16:51 | 16.92352 | -66.36697 | 33055 ft | 563 kts | 41° |
| 2026-04-13 16:51 | 16.97909 | -66.30891 | 33064 ft | 563 kts | 41° |
| 2026-04-13 16:52 | 17.03443 | -66.25111 | 33065 ft | 563 kts | 41° |
| 2026-04-13 16:52 | 17.08985 | -66.19320 | 33066 ft | 563 kts | 41° |
| 2026-04-13 16:53 | 17.14504 | -66.13480 | 33067 ft | 563 kts | 41° |
| 2026-04-13 16:53 | 17.20037 | -66.07624 | 33067 ft | 563 kts | 41° |
| 2026-04-13 16:54 | 17.25564 | -66.01783 | 33066 ft | 563 kts | 41° |
| 2026-04-13 16:54 | 17.31075 | -65.95965 | 33048 ft | 563 kts | 41° |
| 2026-04-13 16:55 | 17.36584 | -65.90150 | 33018 ft | 563 kts | 41° |
| 2026-04-13 16:55 | 17.42094 | -65.84334 | 32985 ft | 563 kts | 41° |
| 2026-04-13 16:56 | 17.47608 | -65.78517 | 32948 ft | 563 kts | 41° |
| 2026-04-13 16:56 | 17.53138 | -65.72685 | 32927 ft | 563 kts | 41° |
| 2026-04-13 16:57 | 17.58647 | -65.66878 | 32925 ft | 563 kts | 41° |
| 2026-04-13 16:57 | 17.64179 | -65.61046 | 33033 ft | 563 kts | 41° |
| 2026-04-13 16:58 | 17.69692 | -65.55201 | 33203 ft | 564 kts | 41° |
| 2026-04-13 16:58 | 17.75195 | -65.49315 | 33239 ft | 564 kts | 41° |
| 2026-04-13 16:59 | 17.80664 | -65.43474 | 33137 ft | 563 kts | 41° |
| 2026-04-13 16:59 | 17.86145 | -65.37627 | 33065 ft | 562 kts | 41° |
| 2026-04-13 17:00 | 17.91652 | -65.31756 | 33051 ft | 562 kts | 41° |
| 2026-04-13 17:00 | 17.97135 | -65.25912 | 33058 ft | 562 kts | 41° |
| 2026-04-13 17:01 | 18.02642 | -65.20042 | 33059 ft | 562 kts | 41° |
| 2026-04-13 17:01 | 18.08142 | -65.14183 | 33072 ft | 562 kts | 41° |
| 2026-04-13 17:02 | 18.13621 | -65.08349 | 33074 ft | 560 kts | 41° |
| 2026-04-13 17:02 | 18.19085 | -65.02533 | 33060 ft | 558 kts | 41° |
| 2026-04-13 17:03 | 18.24573 | -64.96693 | 33054 ft | 559 kts | 41° |
| 2026-04-13 17:03 | 18.30010 | -64.90836 | 33055 ft | 559 kts | 42° |
| 2026-04-13 17:04 | 18.35411 | -64.85002 | 33054 ft | 559 kts | 42° |
| 2026-04-13 17:04 | 18.40869 | -64.79115 | 33056 ft | 559 kts | 42° |
| 2026-04-13 17:05 | 18.46298 | -64.73267 | 33058 ft | 558 kts | 42° |
| 2026-04-13 17:05 | 18.51714 | -64.67432 | 33063 ft | 558 kts | 42° |
| 2026-04-13 17:06 | 18.57145 | -64.61585 | 33070 ft | 558 kts | 42° |
| 2026-04-13 17:06 | 18.62550 | -64.55768 | 33074 ft | 558 kts | 42° |
| 2026-04-13 17:07 | 18.68004 | -64.49900 | 33078 ft | 558 kts | 42° |
| 2026-04-13 17:07 | 18.73456 | -64.44035 | 33081 ft | 558 kts | 42° |
| 2026-04-13 17:08 | 18.78862 | -64.38221 | 33082 ft | 558 kts | 42° |
| 2026-04-13 17:08 | 18.84318 | -64.32347 | 33078 ft | 558 kts | 43° |
| 2026-04-13 17:09 | 18.89722 | -64.26447 | 33081 ft | 558 kts | 43° |
| 2026-04-13 17:09 | 18.95121 | -64.20555 | 33082 ft | 558 kts | 43° |
| 2026-04-13 17:10 | 19.00510 | -64.14683 | 33080 ft | 557 kts | 43° |
| 2026-04-13 17:10 | 19.05909 | -64.08807 | 33078 ft | 557 kts | 43° |
| 2026-04-13 17:11 | 19.11322 | -64.02915 | 33077 ft | 558 kts | 43° |
| 2026-04-13 17:11 | 19.16753 | -63.97006 | 33075 ft | 558 kts | 43° |
| 2026-04-13 17:12 | 19.22149 | -63.91137 | 33073 ft | 558 kts | 43° |
| 2026-04-13 17:12 | 19.27544 | -63.85270 | 33065 ft | 558 kts | 43° |
| 2026-04-13 17:13 | 19.32977 | -63.79364 | 33054 ft | 559 kts | 42° |
| 2026-04-13 17:13 | 19.38395 | -63.73477 | 33049 ft | 559 kts | 42° |
| 2026-04-13 17:14 | 19.43798 | -63.67577 | 33047 ft | 560 kts | 43° |
| 2026-04-13 17:14 | 19.49214 | -63.61594 | 33046 ft | 560 kts | 43° |
| 2026-04-13 17:15 | 19.54612 | -63.55642 | 33046 ft | 559 kts | 43° |
| 2026-04-13 17:15 | 19.60025 | -63.49681 | 33045 ft | 559 kts | 43° |
| 2026-04-13 17:16 | 19.65383 | -63.43783 | 33044 ft | 558 kts | 43° |
| 2026-04-13 17:16 | 19.70791 | -63.37834 | 33042 ft | 559 kts | 43° |
| 2026-04-13 17:17 | 19.76204 | -63.31880 | 33042 ft | 558 kts | 43° |
| 2026-04-13 17:17 | 19.81564 | -63.25988 | 33043 ft | 559 kts | 43° |
| 2026-04-13 17:18 | 19.86989 | -63.20025 | 33043 ft | 559 kts | 43° |
| 2026-04-13 17:18 | 19.92386 | -63.14095 | 33042 ft | 559 kts | 43° |
| 2026-04-13 17:19 | 19.97771 | -63.08181 | 33044 ft | 558 kts | 43° |
| 2026-04-13 17:19 | 20.03137 | -63.02227 | 33044 ft | 558 kts | 43° |
| 2026-04-13 17:20 | 20.08507 | -62.96230 | 33046 ft | 557 kts | 43° |
| 2026-04-13 17:20 | 20.13867 | -62.90258 | 33058 ft | 556 kts | 43° |
| 2026-04-13 17:21 | 20.19202 | -62.84319 | 33056 ft | 553 kts | 44° |
| 2026-04-13 17:21 | 20.24485 | -62.78439 | 33037 ft | 551 kts | 43° |
| 2026-04-13 17:22 | 20.29809 | -62.72516 | 33033 ft | 551 kts | 43° |
| 2026-04-13 17:22 | 20.35110 | -62.66622 | 33037 ft | 552 kts | 43° |
| 2026-04-13 17:23 | 20.40399 | -62.60744 | 33039 ft | 551 kts | 43° |
| 2026-04-13 17:23 | 20.45713 | -62.54839 | 33316 ft | 550 kts | 43° |
| 2026-04-13 17:23 | 20.48356 | -62.51900 | 33686 ft | 548 kts | 43° |
| 2026-04-13 17:24 | 20.51001 | -62.48963 | 33896 ft | 550 kts | 43° |